createdAt,value
2023-03-06T00:01:41.112Z,3.85
2023-03-06T00:04:44.248Z,3.73
2023-03-06T00:07:47.285Z,3.73
2023-03-06T00:10:50.482Z,3.80
2023-03-06T00:13:53.368Z,3.75
2023-03-06T00:16:56.731Z,3.67
2023-03-06T00:19:59.477Z,3.64
2023-03-06T00:23:03.013Z,3.72
2023-03-06T00:26:08.464Z,3.66
2023-03-06T00:29:11.850Z,3.65
2023-03-06T00:32:14.596Z,3.71
2023-03-06T00:35:17.866Z,3.68
2023-03-06T00:38:20.565Z,3.70
2023-03-06T00:41:25.294Z,3.62
2023-03-06T00:44:28.040Z,3.53
2023-03-06T00:47:31.221Z,3.56
2023-03-06T00:50:35.464Z,3.59
2023-03-06T00:53:38.470Z,3.67
2023-03-06T00:56:41.206Z,3.67
2023-03-06T00:59:44.406Z,3.58
2023-03-06T01:02:47.170Z,3.48
2023-03-06T01:05:50.203Z,3.45
2023-03-06T01:08:52.869Z,3.43
2023-03-06T01:11:56.537Z,3.42
2023-03-06T01:14:59.199Z,3.52
2023-03-06T01:18:02.431Z,3.62
2023-03-06T01:21:06.159Z,3.61
2023-03-06T01:24:10.377Z,3.56
2023-03-06T01:27:13.050Z,3.64
2023-03-06T01:30:16.203Z,3.58
2023-03-06T01:33:18.974Z,3.63
2023-03-06T01:36:22.016Z,3.68
2023-03-06T01:39:25.240Z,3.55
2023-03-06T01:42:28.388Z,3.54
2023-03-06T01:45:31.117Z,3.57
2023-03-06T01:48:34.352Z,3.55
2023-03-06T01:51:41.455Z,3.62
2023-03-06T01:54:55.285Z,3.63
2023-03-06T01:58:00.917Z,3.68
2023-03-06T02:01:04.082Z,3.72
2023-03-06T02:04:07.500Z,3.72
2023-03-06T02:07:11.250Z,3.66
2023-03-06T02:10:16.105Z,3.61
2023-03-06T02:13:20.283Z,3.63
2023-03-06T02:16:31.070Z,3.65
2023-03-06T02:19:51.742Z,3.64
2023-03-06T02:23:05.235Z,3.72
2023-03-06T02:26:09.802Z,3.81
2023-03-06T02:29:12.990Z,3.85
2023-03-06T02:32:16.063Z,3.75
2023-03-06T02:35:23.843Z,3.90
2023-03-06T02:38:34.602Z,3.89
2023-03-06T02:41:37.800Z,3.89
2023-03-06T02:44:40.923Z,3.76
2023-03-06T02:47:43.914Z,3.86
2023-03-06T02:50:47.803Z,3.86
2023-03-06T02:53:51.272Z,3.58
2023-03-06T02:56:54.085Z,3.45
2023-03-06T02:59:58.096Z,3.47
2023-03-06T03:03:01.785Z,3.38
2023-03-06T03:06:06.489Z,3.56
2023-03-06T03:09:09.438Z,3.75
2023-03-06T03:12:12.725Z,3.81
2023-03-06T03:15:15.486Z,3.74
2023-03-06T03:18:18.714Z,3.63
2023-03-06T03:21:21.618Z,3.82
2023-03-06T03:24:25.384Z,3.66
2023-03-06T03:27:28.146Z,3.77
2023-03-06T03:30:31.583Z,3.70
2023-03-06T03:33:34.640Z,3.81
2023-03-06T03:36:37.826Z,3.88
2023-03-06T03:39:42.070Z,3.91
2023-03-06T03:42:46.170Z,3.92
2023-03-06T03:45:49.223Z,3.86
2023-03-06T03:48:53.166Z,3.73
2023-03-06T03:51:57.358Z,3.65
2023-03-06T03:55:01.208Z,3.64
2023-03-06T03:58:04.892Z,3.62
2023-03-06T04:01:08.409Z,3.76
2023-03-06T04:04:13.297Z,3.66
2023-03-06T04:07:16.630Z,3.60
2023-03-06T04:10:19.839Z,3.56
2023-03-06T04:13:23.212Z,3.54
2023-03-06T04:16:26.607Z,3.51
2023-03-06T04:19:29.492Z,3.52
2023-03-06T04:22:33.421Z,3.43
2023-03-06T04:25:36.581Z,3.42
2023-03-06T04:28:41.813Z,3.30
2023-03-06T04:31:44.949Z,3.37
2023-03-06T04:34:48.581Z,3.38
2023-03-06T04:37:52.391Z,3.45
2023-03-06T04:40:56.409Z,3.48
2023-03-06T04:43:59.690Z,3.38
2023-03-06T04:47:03.121Z,3.42
2023-03-06T04:50:06.389Z,3.37
2023-03-06T04:53:09.816Z,3.35
2023-03-06T04:56:12.558Z,3.31
2023-03-06T04:59:15.709Z,3.31
2023-03-06T05:02:18.920Z,3.36
2023-03-06T05:05:22.048Z,3.48
2023-03-06T05:08:24.803Z,3.53
2023-03-06T05:11:28.106Z,3.46
2023-03-06T05:14:31.654Z,3.47
2023-03-06T05:17:34.904Z,3.45
2023-03-06T05:20:38.085Z,3.41
2023-03-06T05:23:41.253Z,3.39
2023-03-06T05:26:43.997Z,3.38
2023-03-06T05:29:47.193Z,3.35
2023-03-06T05:32:50.562Z,3.34
2023-03-06T05:35:53.796Z,3.39
2023-03-06T05:38:56.465Z,3.31
2023-03-06T05:41:59.692Z,3.30
2023-03-06T05:45:05.777Z,3.26
2023-03-06T05:48:13.740Z,3.19
2023-03-06T05:51:16.574Z,3.15
2023-03-06T05:54:19.709Z,3.17
2023-03-06T05:57:23.968Z,3.13
2023-03-06T06:00:27.064Z,3.10
2023-03-06T06:03:30.478Z,3.09
2023-03-06T06:06:33.211Z,3.12
2023-03-06T06:09:36.285Z,3.10
2023-03-06T06:12:39.201Z,3.19
2023-03-06T06:15:42.357Z,3.19
2023-03-06T06:18:45.774Z,3.05
2023-03-06T06:21:51.237Z,3.11
2023-03-06T06:24:54.033Z,3.10
2023-03-06T06:27:58.035Z,3.10
2023-03-06T06:31:00.878Z,3.15
2023-03-06T06:34:05.865Z,3.16
2023-03-06T06:37:08.722Z,3.14
2023-03-06T06:40:12.653Z,3.17
2023-03-06T06:43:15.471Z,3.17
2023-03-06T06:46:53.330Z,3.09
2023-03-06T06:49:41.853Z,3.03
2023-03-06T06:52:44.884Z,3.11
2023-03-06T06:55:47.645Z,3.16
2023-03-06T06:58:59.118Z,3.08
2023-03-06T07:02:06.630Z,3.12
2023-03-06T07:05:10.944Z,3.21
2023-03-06T07:08:13.734Z,3.28
2023-03-06T07:11:19.161Z,3.21
2023-03-06T07:14:21.903Z,3.24
2023-03-06T07:17:25.044Z,3.34
2023-03-06T07:20:27.817Z,3.19
2023-03-06T07:23:31.219Z,3.20
2023-03-06T07:26:35.043Z,3.25
2023-03-06T07:29:38.141Z,3.22
2023-03-06T07:32:41.000Z,3.30
2023-03-06T07:35:44.717Z,3.39
2023-03-06T07:38:47.542Z,3.40
2023-03-06T07:41:52.561Z,3.39
2023-03-06T07:44:55.726Z,3.42
2023-03-06T07:47:58.887Z,3.49
2023-03-06T07:51:05.410Z,3.48
2023-03-06T07:54:08.623Z,3.60
2023-03-06T07:57:11.261Z,3.67
2023-03-06T08:00:15.889Z,3.66
2023-03-06T08:03:19.207Z,3.54
2023-03-06T08:06:25.347Z,3.63
2023-03-06T08:09:28.640Z,3.62
2023-03-06T08:12:34.457Z,3.53
2023-03-06T08:15:37.504Z,3.39
2023-03-06T08:18:40.500Z,3.49
2023-03-06T08:21:43.567Z,3.31
2023-03-06T08:24:46.366Z,3.16
2023-03-06T08:27:49.547Z,3.33
2023-03-06T08:30:52.425Z,3.29
2023-03-06T08:33:57.185Z,3.30
2023-03-06T08:36:59.936Z,3.22
2023-03-06T08:40:04.903Z,3.22
2023-03-06T08:43:12.984Z,3.32
2023-03-06T08:46:19.095Z,3.27
2023-03-06T08:49:22.164Z,3.42
2023-03-06T08:52:25.287Z,3.58
2023-03-06T08:55:28.499Z,3.48
2023-03-06T08:58:32.153Z,3.59
2023-03-06T09:01:37.848Z,3.70
2023-03-06T09:04:41.603Z,3.70
2023-03-06T09:07:44.316Z,3.77
2023-03-06T09:10:49.193Z,3.92
2023-03-06T09:13:52.848Z,3.99
2023-03-06T09:16:56.022Z,3.91
2023-03-06T09:19:59.333Z,3.93
2023-03-06T09:23:02.391Z,4.30
2023-03-06T09:26:06.694Z,4.65
2023-03-06T09:29:09.690Z,4.68
2023-03-06T09:32:12.480Z,4.79
2023-03-06T09:35:15.634Z,4.87
2023-03-06T09:38:19.293Z,4.96
2023-03-06T09:41:32.911Z,4.90
2023-03-06T09:44:37.293Z,5.02
2023-03-06T09:47:56.734Z,5.01
2023-03-06T09:51:07.913Z,5.03
2023-03-06T09:54:15.460Z,4.89
2023-03-06T09:57:31.063Z,5.02
2023-03-06T10:00:38.889Z,5.11
2023-03-06T10:04:03.939Z,5.03
2023-03-06T10:07:13.295Z,5.10
2023-03-06T10:10:34.447Z,5.22
2023-03-06T10:13:38.982Z,5.19
2023-03-06T10:16:42.282Z,5.43
2023-03-06T10:19:47.846Z,5.62
2023-03-06T10:23:25.000Z,5.67
2023-03-06T10:26:37.914Z,5.79
2023-03-06T10:30:06.741Z,5.72
2023-03-06T10:33:47.895Z,5.88
2023-03-06T10:36:51.469Z,5.95
2023-03-06T10:40:14.247Z,5.95
2023-03-06T10:43:17.435Z,5.98
2023-03-06T10:46:37.882Z,5.96
2023-03-06T10:49:41.351Z,5.97
2023-03-06T10:52:44.023Z,5.77
2023-03-06T10:55:59.161Z,5.85
2023-03-06T10:59:25.681Z,5.62
2023-03-06T11:02:37.418Z,6.00
2023-03-06T11:05:40.184Z,6.11
2023-03-06T11:08:44.684Z,5.71
2023-03-06T11:11:48.601Z,6.03
2023-03-06T11:15:10.629Z,6.14
2023-03-06T11:18:13.366Z,6.07
2023-03-06T11:21:32.029Z,6.05
2023-03-06T11:24:42.747Z,6.24
2023-03-06T11:27:52.944Z,6.52
2023-03-06T11:31:11.000Z,6.85
2023-03-06T11:34:51.789Z,6.83
2023-03-06T11:37:59.400Z,6.90
2023-03-06T11:41:11.826Z,7.16
2023-03-06T11:44:26.547Z,7.37
2023-03-06T11:47:35.288Z,7.44
2023-03-06T11:50:46.908Z,7.39
2023-03-06T11:53:50.013Z,7.34
2023-03-06T11:57:19.023Z,7.49
2023-03-06T12:00:33.131Z,7.29
2023-03-06T12:03:51.532Z,7.57
2023-03-06T12:07:15.310Z,7.66
2023-03-06T12:10:28.336Z,7.75
2023-03-06T12:17:05.867Z,8.15
2023-03-06T12:20:20.079Z,8.15
2023-03-06T12:23:28.980Z,7.49
2023-03-06T12:26:46.943Z,7.75
2023-03-06T12:30:29.008Z,7.54
2023-03-06T12:33:41.222Z,7.40
2023-03-06T12:37:16.752Z,7.43
2023-03-06T12:41:10.856Z,7.23
2023-03-06T12:44:25.888Z,7.02
2023-03-06T12:47:31.582Z,7.03
2023-03-06T12:50:39.014Z,7.28
2023-03-06T12:53:42.731Z,7.45
2023-03-06T12:56:47.448Z,7.75
2023-03-06T12:59:50.559Z,7.83
2023-03-06T13:03:15.291Z,7.98
2023-03-06T13:06:49.855Z,8.29
2023-03-06T13:10:23.518Z,7.87
2023-03-06T13:13:33.069Z,8.07
2023-03-06T13:16:36.349Z,8.11
2023-03-06T13:19:39.092Z,7.93
2023-03-06T13:22:47.535Z,8.17
2023-03-06T13:25:51.084Z,8.09
2023-03-06T13:28:58.438Z,8.45
2023-03-06T13:32:01.345Z,8.65
2023-03-06T13:35:30.775Z,8.48
2023-03-06T13:38:37.541Z,8.44
2023-03-06T13:41:57.425Z,8.48
2023-03-06T13:45:14.327Z,8.66
2023-03-06T13:48:44.097Z,8.77
2023-03-06T13:51:54.487Z,8.42
2023-03-06T13:55:09.558Z,8.45
2023-03-06T13:58:45.875Z,8.08
2023-03-06T14:01:48.872Z,7.89
2023-03-06T14:05:00.164Z,8.15
2023-03-06T14:08:10.491Z,7.86
2023-03-06T14:11:21.439Z,8.12
2023-03-06T14:14:32.692Z,8.14
2023-03-06T14:17:39.358Z,8.10
2023-03-06T14:21:00.212Z,8.28
2023-03-06T14:24:05.040Z,8.18
2023-03-06T14:27:09.343Z,8.08
2023-03-06T14:30:21.201Z,7.93
2023-03-06T14:33:33.924Z,7.89
2023-03-06T14:36:42.875Z,7.76
2023-03-06T14:39:46.947Z,7.56
2023-03-06T14:42:50.045Z,7.53
2023-03-06T14:45:58.728Z,7.60
2023-03-06T14:49:01.890Z,7.39
2023-03-06T14:52:04.747Z,7.28
2023-03-06T14:55:18.122Z,7.18
2023-03-06T14:58:28.217Z,6.97
2023-03-06T15:01:43.248Z,6.91
2023-03-06T15:04:49.740Z,6.72
2023-03-06T15:07:55.857Z,6.60
2023-03-06T15:11:01.668Z,6.65
2023-03-06T15:14:05.680Z,6.65
2023-03-06T15:17:17.729Z,6.71
2023-03-06T15:20:43.758Z,6.61
2023-03-06T15:23:49.933Z,6.55
2023-03-06T15:26:55.472Z,6.46
2023-03-06T15:30:23.423Z,6.39
2023-03-06T15:33:26.858Z,6.26
2023-03-06T15:36:35.031Z,6.17
2023-03-06T15:39:40.603Z,6.07
2023-03-06T15:42:43.537Z,6.04
2023-03-06T15:45:46.678Z,6.12
2023-03-06T15:48:53.202Z,6.19
2023-03-06T15:51:56.454Z,6.13
2023-03-06T15:54:59.525Z,6.08
2023-03-06T15:58:04.850Z,6.04
2023-03-06T16:01:08.462Z,6.03
2023-03-06T16:04:11.708Z,5.91
2023-03-06T16:07:15.442Z,5.87
2023-03-06T16:10:24.371Z,5.74
2023-03-06T16:13:29.266Z,5.63
2023-03-06T16:16:38.094Z,5.51
2023-03-06T16:19:41.723Z,5.37
2023-03-06T16:22:46.589Z,5.41
2023-03-06T16:25:50.593Z,5.33
2023-03-06T16:28:54.027Z,5.24
2023-03-06T16:31:58.857Z,5.08
2023-03-06T16:35:02.342Z,4.93
2023-03-06T16:38:06.578Z,4.93
2023-03-06T16:41:10.141Z,4.89
2023-03-06T16:44:13.850Z,4.93
2023-03-06T16:47:18.108Z,4.83
2023-03-06T16:50:28.935Z,4.83
2023-03-06T16:53:32.851Z,4.91
2023-03-06T16:56:37.931Z,5.00
2023-03-06T16:59:42.826Z,5.16
2023-03-06T17:02:49.091Z,5.25
2023-03-06T17:05:55.732Z,5.32
2023-03-06T17:08:59.912Z,5.28
2023-03-06T17:12:03.778Z,5.35
2023-03-06T17:15:08.718Z,5.40
2023-03-06T17:18:13.414Z,5.31
2023-03-06T17:21:17.460Z,5.39
2023-03-06T17:24:21.821Z,5.35
2023-03-06T17:27:26.058Z,5.24
2023-03-06T17:30:30.610Z,5.54
2023-03-06T17:33:33.684Z,5.43
2023-03-06T17:36:39.412Z,5.32
2023-03-06T17:39:42.844Z,5.35
2023-03-06T17:42:46.689Z,5.59
2023-03-06T17:45:49.817Z,5.39
2023-03-06T17:48:54.397Z,5.09
2023-03-06T17:52:00.673Z,4.98
2023-03-06T17:55:05.889Z,5.10
2023-03-06T17:58:11.376Z,5.25
2023-03-06T18:01:19.177Z,5.39
2023-03-06T18:04:22.862Z,5.50
2023-03-06T18:07:27.636Z,5.44
2023-03-06T18:10:32.226Z,5.39
2023-03-06T18:13:38.083Z,5.41
2023-03-06T18:16:43.401Z,5.49
2023-03-06T18:19:51.583Z,5.43
2023-03-06T18:22:55.900Z,5.44
2023-03-06T18:26:24.897Z,5.41
2023-03-06T18:29:29.413Z,5.26
2023-03-06T18:32:33.601Z,5.36
2023-03-06T18:35:37.910Z,5.38
2023-03-06T18:38:44.756Z,5.22
2023-03-06T18:41:48.865Z,5.14
2023-03-06T18:44:53.001Z,5.38
2023-03-06T18:47:56.727Z,5.40
2023-03-06T18:51:11.009Z,5.51
2023-03-06T18:54:15.727Z,5.51
2023-03-06T18:57:19.119Z,5.43
2023-03-06T19:00:23.790Z,5.43
2023-03-06T19:03:27.915Z,5.35
2023-03-06T19:06:32.656Z,5.45
2023-03-06T19:09:37.628Z,5.17
2023-03-06T19:12:45.356Z,5.25
2023-03-06T19:15:50.378Z,5.24
2023-03-06T19:19:01.351Z,5.19
2023-03-06T19:22:06.228Z,5.06
2023-03-06T19:25:10.263Z,5.10
2023-03-06T19:28:13.225Z,5.08
2023-03-06T19:31:25.130Z,5.09
2023-03-06T19:34:29.279Z,5.19
2023-03-06T19:37:38.153Z,5.48
2023-03-06T19:40:41.857Z,5.44
2023-03-06T19:43:47.246Z,5.32
2023-03-06T19:46:51.543Z,5.31
2023-03-06T19:49:56.075Z,5.23
2023-03-06T19:53:01.567Z,5.38
2023-03-06T19:56:16.613Z,5.27
2023-03-06T19:59:21.596Z,5.08
2023-03-06T20:02:27.998Z,4.95
2023-03-06T20:05:32.039Z,4.94
2023-03-06T20:08:37.875Z,5.08
2023-03-06T20:11:43.577Z,4.97
2023-03-06T20:14:49.012Z,4.85
2023-03-06T20:17:54.187Z,4.63
2023-03-06T20:21:04.861Z,4.78
2023-03-06T20:24:11.750Z,4.81
2023-03-06T20:27:16.625Z,5.07
2023-03-06T20:30:21.839Z,4.89
2023-03-06T20:33:27.462Z,4.88
2023-03-06T20:36:36.080Z,5.03
2023-03-06T20:39:43.429Z,4.89
2023-03-06T20:42:47.480Z,4.98
2023-03-06T20:46:02.811Z,5.06
2023-03-06T20:49:08.335Z,5.08
2023-03-06T20:52:15.033Z,5.11
2023-03-06T20:55:18.897Z,5.10
2023-03-06T20:58:26.303Z,5.10
2023-03-06T21:01:31.825Z,5.15
2023-03-06T21:04:36.864Z,5.02
2023-03-06T21:07:40.498Z,4.81
2023-03-06T21:10:46.704Z,4.86
2023-03-06T21:13:50.748Z,5.07
2023-03-06T21:16:54.495Z,5.22
2023-03-06T21:19:58.701Z,5.46
2023-03-06T21:23:04.998Z,5.38
2023-03-06T21:26:08.833Z,5.30
2023-03-06T21:29:12.123Z,5.35
2023-03-06T21:32:15.618Z,5.23
2023-03-06T21:35:19.311Z,5.25
2023-03-06T21:38:22.505Z,5.48
2023-03-06T21:41:28.678Z,5.15
2023-03-06T21:44:32.374Z,4.85
2023-03-06T21:47:40.984Z,5.04
2023-03-06T21:50:45.911Z,5.15
2023-03-06T21:53:49.064Z,5.11
2023-03-06T21:56:52.107Z,5.02
2023-03-06T21:59:54.832Z,5.05
2023-03-06T22:02:57.924Z,5.06
2023-03-06T22:06:12.162Z,5.04
2023-03-06T22:09:16.433Z,4.81
2023-03-06T22:12:19.529Z,4.72
2023-03-06T22:15:22.398Z,4.78
2023-03-06T22:18:25.626Z,4.90
2023-03-06T22:21:28.411Z,4.90
2023-03-06T22:24:33.548Z,4.84
2023-03-06T22:27:36.754Z,4.86
2023-03-06T22:30:40.860Z,4.89
2023-03-06T22:33:44.310Z,4.96
2023-03-06T22:36:47.441Z,4.85
2023-03-06T22:39:50.380Z,4.68
2023-03-06T22:42:53.369Z,4.58
2023-03-06T22:46:02.729Z,4.70
2023-03-06T22:49:06.980Z,4.60
2023-03-06T22:52:10.099Z,4.55
2023-03-06T22:55:13.087Z,4.42
2023-03-06T22:58:16.847Z,4.51
2023-03-06T23:01:24.009Z,4.54
2023-03-06T23:04:27.622Z,4.40
2023-03-06T23:07:32.290Z,4.46
2023-03-06T23:10:40.503Z,4.25
2023-03-06T23:14:03.152Z,4.19
2023-03-06T23:17:25.534Z,4.20
2023-03-06T23:20:47.847Z,4.16
2023-03-06T23:24:10.051Z,4.22
2023-03-06T23:27:15.166Z,4.21
2023-03-06T23:30:18.542Z,4.07
2023-03-06T23:33:21.637Z,4.25
2023-03-06T23:36:25.006Z,4.07
2023-03-06T23:39:28.101Z,4.08
2023-03-06T23:42:30.974Z,3.98
2023-03-06T23:45:34.236Z,4.17
2023-03-06T23:48:38.629Z,4.10
2023-03-06T23:51:41.740Z,4.00
2023-03-06T23:54:44.557Z,3.69
2023-03-06T23:57:47.609Z,3.53
